Time;durP1;ratioP1;P1;durP2;ratioP2;P2;SDS_P1;SDS_P2;PMS_P1;PMS_P2;Temp;Humidity;BMP_temperature;BMP_pressure;BME280_temperature;BME280_humidity;BME280_pressure;Samples;Min_cycle;Max_cycle;Signal;HPM_P1;HPM_P2
2023/05/21 00:00:12;;;;;;;0.55;0.55;;;;;;;11.46;100.00;100759.16;7390203;19;20015;-81
2023/05/21 00:02:38;;;;;;;0.85;0.55;;;;;;;11.24;100.00;100766.84;7397499;19;20011;-81
2023/05/21 00:05:05;;;;;;;1.75;0.90;;;;;;;10.00;100.00;100762.22;7392846;19;20018;-81
2023/05/21 00:07:32;;;;;;;0.65;0.65;;;;;;;10.50;100.00;100767.63;7392763;19;20081;-81
2023/05/21 00:09:58;;;;;;;0.47;0.47;;;;;;;11.12;100.00;100762.91;7389748;19;20464;-81
2023/05/21 00:12:24;;;;;;;0.85;0.40;;;;;;;9.79;100.00;100768.50;7391349;19;20031;-81
2023/05/21 00:14:50;;;;;;;0.57;0.57;;;;;;;9.43;100.00;100768.09;7394179;19;20021;-82
2023/05/21 00:17:16;;;;;;;16.65;0.98;;;;;;;9.51;100.00;100763.84;7391114;19;20010;-81
2023/05/21 00:19:43;;;;;;;0.85;0.85;;;;;;;10.72;100.00;100744.56;7390300;19;20030;-80
2023/05/21 00:22:09;;;;;;;3.58;1.20;;;;;;;10.71;100.00;100759.72;7390789;19;20018;-81
2023/05/21 00:24:35;;;;;;;0.82;0.82;;;;;;;11.02;100.00;100757.75;7390415;19;20047;-81
2023/05/21 00:27:02;;;;;;;0.73;0.73;;;;;;;10.89;100.00;100754.28;7395936;19;20022;-81
2023/05/21 00:29:28;;;;;;;0.65;0.65;;;;;;;10.85;100.00;100759.97;7394497;19;20018;-81
2023/05/21 00:31:55;;;;;;;3.45;0.60;;;;;;;10.46;100.00;100755.06;7390413;19;20018;-81
2023/05/21 00:34:21;;;;;;;0.90;0.90;;;;;;;10.54;100.00;100762.72;7392322;19;20018;-82
2023/05/21 00:36:47;;;;;;;1.33;0.88;;;;;;;10.03;100.00;100755.75;7391148;19;20078;-82
2023/05/21 00:39:14;;;;;;;0.65;0.65;;;;;;;10.08;100.00;100752.41;7401273;19;20071;-83
2023/05/21 00:41:41;;;;;;;1.38;1.15;;;;;;;10.06;100.00;100752.06;7401870;19;20010;-81
2023/05/21 00:44:08;;;;;;;0.85;0.77;;;;;;;10.03;100.00;100760.56;7404033;19;20014;-82
2023/05/21 00:46:35;;;;;;;0.80;0.80;;;;;;;9.95;100.00;100757.22;7407571;19;20010;-82
2023/05/21 00:49:01;;;;;;;0.70;0.70;;;;;;;9.95;100.00;100757.22;7404789;19;20086;-82
2023/05/21 00:51:29;;;;;;;0.70;0.70;;;;;;;9.89;100.00;100759.03;7402463;19;20029;-82
2023/05/21 00:53:55;;;;;;;0.35;0.35;;;;;;;9.84;100.00;100765.16;7403226;19;20039;-82
2023/05/21 00:56:23;;;;;;;0.80;0.80;;;;;;;9.79;100.00;100758.16;7403854;19;20014;-82
2023/05/21 00:58:54;;;;;;;0.80;0.80;;;;;;;9.67;100.00;100760.94;7406918;19;20018;-82
2023/05/21 01:01:24;;;;;;;0.25;0.25;;;;;;;9.83;100.00;100766.38;7404087;19;20078;-81
2023/05/21 01:03:53;;;;;;;3.90;0.60;;;;;;;9.79;100.00;100762.94;7405590;19;20011;-81
2023/05/21 01:06:19;;;;;;;0.65;0.50;;;;;;;9.93;100.00;100762.47;7403874;19;20468;-82
2023/05/21 01:08:46;;;;;;;1.92;0.65;;;;;;;9.96;100.00;100769.91;7403287;19;20401;-81
2023/05/21 01:11:13;;;;;;;2.55;0.70;;;;;;;9.84;100.00;100759.59;7405126;19;20027;-81
2023/05/21 01:13:40;;;;;;;0.47;0.47;;;;;;;9.78;100.00;100758.59;7402777;19;20014;-80
2023/05/21 01:16:08;;;;;;;1.00;0.80;;;;;;;9.81;100.00;100761.25;7399065;19;20025;-82
2023/05/21 01:18:36;;;;;;;9.52;1.33;;;;;;;9.80;100.00;100753.38;7402348;19;20015;-84
2023/05/21 01:21:04;;;;;;;0.55;0.32;;;;;;;9.72;100.00;100746.50;7401368;19;20029;-82
2023/05/21 01:23:30;;;;;;;2.70;0.82;;;;;;;9.71;100.00;100744.91;7405998;19;20472;-82
2023/05/21 01:25:57;;;;;;;0.45;0.35;;;;;;;9.58;100.00;100742.16;7401870;19;20018;-81
2023/05/21 01:28:23;;;;;;;0.47;0.47;;;;;;;9.46;100.00;100733.84;7408344;19;20018;-83
2023/05/21 01:30:50;;;;;;;0.60;0.60;;;;;;;9.41;100.00;100737.19;7402325;19;20014;-84
2023/05/21 01:33:24;;;;;;;1.83;0.57;;;;;;;9.34;100.00;100737.41;7404348;19;20018;-83
2023/05/21 01:36:00;;;;;;;0.90;0.90;;;;;;;9.35;100.00;100750.88;7408926;19;20019;-83
2023/05/21 01:38:36;;;;;;;0.28;0.28;;;;;;;9.37;100.00;100747.63;7406434;19;20070;-82
2023/05/21 01:41:07;;;;;;;0.60;0.60;;;;;;;9.49;100.00;100749.63;7403664;19;20073;-82
2023/05/21 01:43:35;;;;;;;0.43;0.43;;;;;;;9.65;100.00;100746.72;7404033;19;20019;-82
2023/05/21 01:46:04;;;;;;;0.30;0.30;;;;;;;9.75;100.00;100740.81;7402838;19;20047;-82
2023/05/21 01:48:33;;;;;;;0.77;0.77;;;;;;;9.85;100.00;100738.91;7403030;19;20021;-83
2023/05/21 01:51:03;;;;;;;2.63;0.73;;;;;;;9.69;100.00;100747.38;7392640;19;20078;-81
2023/05/21 01:53:30;;;;;;;0.90;0.90;;;;;;;9.38;100.00;100743.63;7396398;19;20370;-80
2023/05/21 01:55:56;;;;;;;0.40;0.40;;;;;;;7.97;100.00;100742.94;7394874;19;20027;-80
2023/05/21 01:58:23;;;;;;;1.00;1.00;;;;;;;8.38;100.00;100739.50;7398869;19;20022;-80
2023/05/21 02:00:52;;;;;;;1.17;0.73;;;;;;;10.17;100.00;100733.03;7393812;19;20018;-81
2023/05/21 02:03:19;;;;;;;1.27;1.00;;;;;;;9.55;100.00;100731.94;7396267;19;20466;-81
2023/05/21 02:05:46;;;;;;;0.70;0.70;;;;;;;9.50;100.00;100734.50;7394081;19;20015;-81
2023/05/21 02:08:13;;;;;;;1.65;1.08;;;;;;;9.28;100.00;100728.06;7395657;19;20015;-81
2023/05/21 02:10:40;;;;;;;0.90;0.52;;;;;;;9.27;100.00;100732.09;7394089;19;20495;-80
2023/05/21 02:13:06;;;;;;;1.90;0.70;;;;;;;9.33;100.00;100735.84;7394584;19;20364;-80
2023/05/21 02:15:35;;;;;;;0.30;0.30;;;;;;;9.14;100.00;100721.72;7396637;19;20036;-80
2023/05/21 02:18:02;;;;;;;0.63;0.63;;;;;;;9.13;100.00;100722.19;7395015;19;20022;-81
2023/05/21 02:20:29;;;;;;;0.75;0.75;;;;;;;8.63;100.00;100722.91;7393569;19;20074;-80
2023/05/21 02:22:55;;;;;;;0.60;0.60;;;;;;;8.85;100.00;100723.84;7397073;19;20018;-80
2023/05/21 02:25:22;;;;;;;1.90;1.10;;;;;;;8.63;100.00;100727.69;7393671;19;20496;-80
2023/05/21 02:27:52;;;;;;;0.38;0.38;;;;;;;8.60;100.00;100723.78;7398022;19;20010;-80
2023/05/21 02:30:19;;;;;;;0.80;0.73;;;;;;;8.74;100.00;100717.03;7395113;19;20113;-80
2023/05/21 02:32:48;;;;;;;0.68;0.68;;;;;;;8.72;100.00;100714.72;7393934;19;20041;-81
2023/05/21 02:35:15;;;;;;;0.95;0.77;;;;;;;8.62;100.00;100717.81;7396444;19;20023;-80
2023/05/21 02:37:42;;;;;;;7.85;1.00;;;;;;;7.25;100.00;100720.22;7397255;19;20018;-80
2023/05/21 02:40:09;;;;;;;0.70;0.70;;;;;;;9.27;100.00;100709.84;7394214;19;20022;-80
2023/05/21 02:42:38;;;;;;;0.52;0.52;;;;;;;9.51;100.00;100708.25;7394357;19;20017;-81
2023/05/21 02:45:10;;;;;;;0.38;0.38;;;;;;;9.34;100.00;100717.94;7393596;19;20048;-81
2023/05/21 02:47:37;;;;;;;2.92;1.00;;;;;;;9.37;100.00;100714.28;7395258;19;20102;-80
2023/05/21 02:50:07;;;;;;;0.40;0.40;;;;;;;9.24;100.00;100707.94;7393018;19;20458;-80
2023/05/21 02:52:36;;;;;;;2.05;1.00;;;;;;;9.13;100.00;100714.63;7393490;19;20084;-80
2023/05/21 02:55:02;;;;;;;0.70;0.70;;;;;;;8.97;100.00;100709.16;7393402;19;20017;-80
2023/05/21 02:57:28;;;;;;;1.98;1.17;;;;;;;8.90;100.00;100703.81;7395236;19;20010;-80
2023/05/21 02:59:54;;;;;;;0.80;0.80;;;;;;;9.09;100.00;100705.63;7392359;19;20018;-81
2023/05/21 03:02:21;;;;;;;0.60;0.60;;;;;;;9.13;100.00;100703.53;7392873;19;20010;-80
2023/05/21 03:04:47;;;;;;;0.65;0.65;;;;;;;8.90;100.00;100709.38;7393284;19;20022;-80
2023/05/21 03:07:14;;;;;;;0.20;0.20;;;;;;;8.74;100.00;100706.72;7392459;19;20026;-80
2023/05/21 03:09:41;;;;;;;0.30;0.30;;;;;;;8.70;100.00;100711.59;7394159;19;20052;-81
2023/05/21 03:12:09;;;;;;;0.77;0.75;;;;;;;8.56;100.00;100709.22;7393169;19;20074;-81
2023/05/21 03:14:35;;;;;;;3.20;0.65;;;;;;;8.52;100.00;100716.88;7394468;19;20025;-81
2023/05/21 03:17:04;;;;;;;3.72;0.93;;;;;;;8.44;100.00;100715.53;7393701;19;20494;-81
2023/05/21 03:19:33;;;;;;;1.08;1.08;;;;;;;8.48;100.00;100705.09;7392678;19;20010;-79
2023/05/21 03:22:02;;;;;;;0.50;0.50;;;;;;;8.46;100.00;100704.00;7394745;19;20042;-80
2023/05/21 03:24:31;;;;;;;0.43;0.43;;;;;;;8.87;100.00;100704.72;7392519;19;20010;-80
2023/05/21 03:27:00;;;;;;;0.57;0.57;;;;;;;7.37;100.00;100705.66;7392993;19;20014;-80
2023/05/21 03:29:27;;;;;;;2.15;0.95;;;;;;;6.47;100.00;100703.78;7392194;19;20508;-81
2023/05/21 03:31:54;;;;;;;0.45;0.45;;;;;;;6.22;100.00;100695.19;7393858;19;20498;-80
2023/05/21 03:34:20;;;;;;;0.38;0.38;;;;;;;6.11;100.00;100693.41;7392654;19;20516;-80
2023/05/21 03:36:48;;;;;;;0.77;0.73;;;;;;;6.05;100.00;100697.88;7391866;19;20373;-80
2023/05/21 03:39:16;;;;;;;0.68;0.68;;;;;;;6.02;100.00;100701.47;7392404;19;20464;-80
2023/05/21 03:41:43;;;;;;;10.40;1.70;;;;;;;8.22;100.00;100686.78;7389228;19;20014;-80
2023/05/21 03:44:16;;;;;;;0.60;0.60;;;;;;;10.71;100.00;100684.50;7393314;19;20022;-81
2023/05/21 03:46:55;;;;;;;0.60;0.60;;;;;;;11.62;100.00;100678.00;7390431;19;20074;-81
2023/05/21 03:49:25;;;;;;;2.90;1.30;;;;;;;11.88;100.00;100684.13;7391729;19;20018;-80
2023/05/21 03:51:54;;;;;;;0.60;0.60;;;;;;;11.91;100.00;100686.75;7390849;19;20010;-80
2023/05/21 03:54:20;;;;;;;10.15;1.75;;;;;;;12.14;100.00;100686.16;7390545;19;20074;-80
2023/05/21 03:56:49;;;;;;;1.55;0.85;;;;;;;12.24;100.00;100680.53;7393483;19;20022;-80
2023/05/21 03:59:15;;;;;;;0.75;0.75;;;;;;;12.33;100.00;100681.31;7390647;19;20010;-80
2023/05/21 04:01:44;;;;;;;0.70;0.70;;;;;;;12.65;100.00;100679.84;7388876;19;20019;-81
2023/05/21 04:04:13;;;;;;;1.63;1.05;;;;;;;12.84;100.00;100675.75;7391453;19;20015;-81
2023/05/21 04:06:41;;;;;;;0.63;0.63;;;;;;;12.83;100.00;100685.38;7389576;19;20094;-80
2023/05/21 04:09:08;;;;;;;0.65;0.63;;;;;;;12.67;100.00;100677.34;7394283;19;20070;-80
2023/05/21 04:11:35;;;;;;;0.57;0.57;;;;;;;12.58;100.00;100694.16;7389026;19;20023;-81
2023/05/21 04:14:02;;;;;;;0.70;0.70;;;;;;;13.08;100.00;100698.22;7389729;19;20039;-80
2023/05/21 04:16:29;;;;;;;0.73;0.73;;;;;;;13.21;100.00;100688.34;7390488;19;20023;-81
2023/05/21 04:18:55;;;;;;;0.40;0.40;;;;;;;13.39;100.00;100682.69;7389627;19;20010;-79
2023/05/21 04:21:22;;;;;;;3.13;1.40;;;;;;;13.53;100.00;100682.00;7392122;19;20041;-81
2023/05/21 04:23:48;;;;;;;1.05;1.05;;;;;;;13.61;100.00;100679.59;7391163;19;20018;-81
2023/05/21 04:26:25;;;;;;;2.33;1.27;;;;;;;13.78;100.00;100683.53;7390364;19;20010;-80
2023/05/21 04:28:52;;;;;;;0.70;0.70;;;;;;;13.99;100.00;100684.47;7390666;19;20038;-81
2023/05/21 04:31:19;;;;;;;1.13;0.85;;;;;;;14.25;99.17;100677.09;7391419;19;20007;-80
2023/05/21 04:33:45;;;;;;;2.25;1.48;;;;;;;14.30;97.23;100674.41;7391211;19;20019;-81
2023/05/21 04:36:11;;;;;;;0.98;0.90;;;;;;;14.50;95.65;100682.16;7390484;19;20044;-80
2023/05/21 04:38:40;;;;;;;1.02;0.95;;;;;;;8.26;100.00;100698.59;7394480;19;20034;-81
2023/05/21 04:41:09;;;;;;;2.38;1.42;;;;;;;10.42;100.00;100688.34;7389432;19;20053;-81
2023/05/21 04:43:37;;;;;;;1.85;0.82;;;;;;;13.92;100.00;100674.41;7390422;19;20015;-80
2023/05/21 04:46:03;;;;;;;0.65;0.65;;;;;;;14.41;100.00;100673.84;7389800;19;20019;-80
2023/05/21 04:48:29;;;;;;;1.02;0.63;;;;;;;15.04;96.75;100670.31;7390433;19;20011;-80
2023/05/21 04:50:56;;;;;;;3.53;1.00;;;;;;;15.34;94.66;100673.06;7389573;19;20026;-81
2023/05/21 04:53:24;;;;;;;1.23;0.70;;;;;;;15.62;92.59;100665.81;7392070;19;20015;-81
2023/05/21 04:55:50;;;;;;;4.28;1.35;;;;;;;15.73;90.50;100672.34;7389865;19;20018;-80
2023/05/21 04:58:17;;;;;;;0.98;0.98;;;;;;;15.67;89.72;100679.94;7394600;19;20014;-80
2023/05/21 05:00:45;;;;;;;0.73;0.73;;;;;;;14.89;93.33;100678.00;7389260;19;20092;-81
2023/05/21 05:03:12;;;;;;;0.85;0.85;;;;;;;15.22;94.27;100677.75;7391334;19;20010;-80
2023/05/21 05:05:38;;;;;;;0.65;0.65;;;;;;;15.52;92.20;100673.63;7390324;19;20050;-80
2023/05/21 05:08:05;;;;;;;3.22;0.88;;;;;;;11.81;100.00;100685.19;7388887;19;20618;-80
2023/05/21 05:10:31;;;;;;;0.50;0.50;;;;;;;14.09;100.00;100677.53;7387666;19;20107;-81
2023/05/21 05:12:58;;;;;;;0.47;0.47;;;;;;;15.59;97.46;100669.63;7390901;19;20018;-80
2023/05/21 05:15:25;;;;;;;1.75;0.73;;;;;;;13.80;99.08;100677.44;7391569;19;20011;-81
2023/05/21 05:17:51;;;;;;;0.65;0.65;;;;;;;9.11;100.00;100685.72;7388607;19;20082;-80
2023/05/21 05:20:17;;;;;;;0.73;0.73;;;;;;;7.05;100.00;100675.19;7389146;19;20024;-80
2023/05/21 05:22:43;;;;;;;1.30;1.02;;;;;;;7.15;100.00;100676.91;7390895;19;20024;-81
2023/05/21 05:25:10;;;;;;;0.88;0.88;;;;;;;7.10;100.00;100680.22;7394137;19;20113;-80
2023/05/21 05:27:36;;;;;;;1.33;0.50;;;;;;;7.73;100.00;100680.63;7399707;19;20017;-81
2023/05/21 05:30:03;;;;;;;1.25;1.25;;;;;;;7.42;100.00;100691.31;7395606;19;20018;-80
2023/05/21 05:32:30;;;;;;;1.02;0.45;;;;;;;7.64;100.00;100677.69;7396409;19;20107;-80
2023/05/21 05:34:56;;;;;;;1.45;0.70;;;;;;;7.78;100.00;100676.50;7396779;19;20039;-81
2023/05/21 05:37:22;;;;;;;0.57;0.57;;;;;;;7.89;100.00;100679.78;7399276;19;20013;-81
2023/05/21 05:39:49;;;;;;;0.82;0.82;;;;;;;7.96;100.00;100676.81;7395344;19;20014;-81
2023/05/21 05:42:15;;;;;;;0.68;0.50;;;;;;;8.19;100.00;100679.34;7395112;19;20015;-80
2023/05/21 05:44:42;;;;;;;0.63;0.50;;;;;;;8.03;100.00;100684.97;7394573;19;20082;-81
2023/05/21 05:47:09;;;;;;;1.40;0.80;;;;;;;9.42;100.00;100669.25;7399028;19;20082;-81
2023/05/21 05:49:37;;;;;;;0.50;0.50;;;;;;;8.28;100.00;100679.50;7395913;19;20021;-80
2023/05/21 05:52:04;;;;;;;1.02;0.90;;;;;;;8.19;100.00;100682.13;7401331;19;20022;-80
2023/05/21 05:54:30;;;;;;;0.52;0.52;;;;;;;8.23;100.00;100682.78;7401710;19;20018;-80
2023/05/21 05:56:56;;;;;;;0.68;0.68;;;;;;;8.36;100.00;100695.53;7399922;19;20348;-80
2023/05/21 05:59:25;;;;;;;5.28;0.90;;;;;;;8.51;100.00;100687.56;7395816;19;20010;-82
2023/05/21 06:01:55;;;;;;;0.57;0.57;;;;;;;8.92;100.00;100684.72;7395621;19;20031;-81
2023/05/21 06:04:21;;;;;;;1.50;1.42;;;;;;;8.99;100.00;100694.84;7395994;19;20387;-81
2023/05/21 06:06:48;;;;;;;8.50;1.25;;;;;;;9.07;100.00;100696.94;7395892;19;20019;-82
2023/05/21 06:09:14;;;;;;;0.70;0.70;;;;;;;8.96;100.00;100706.84;7396656;19;20018;-80
2023/05/21 06:11:41;;;;;;;0.68;0.68;;;;;;;9.04;100.00;100703.41;7395138;19;20031;-81
2023/05/21 06:14:07;;;;;;;2.20;0.80;;;;;;;9.50;100.00;100706.69;7396996;19;20565;-81
2023/05/21 06:16:33;;;;;;;1.13;1.13;;;;;;;15.71;100.00;100693.75;7397215;19;20022;-81
2023/05/21 06:18:59;;;;;;;0.80;0.73;;;;;;;18.31;100.00;100701.53;7394665;19;20019;-81
2023/05/21 06:21:26;;;;;;;1.10;0.82;;;;;;;11.91;100.00;100699.94;7392720;19;20077;-81
2023/05/21 06:23:52;;;;;;;0.90;0.65;;;;;;;10.48;100.00;100703.25;7394944;19;20025;-81
2023/05/21 06:26:20;;;;;;;4.57;0.77;;;;;;;10.52;100.00;100703.13;7394811;19;20022;-81
2023/05/21 06:28:48;;;;;;;1.45;0.77;;;;;;;10.29;100.00;100707.13;7394225;19;20428;-81
2023/05/21 06:31:15;;;;;;;0.60;0.60;;;;;;;10.45;100.00;100703.38;7392904;19;20015;-80
2023/05/21 06:33:42;;;;;;;0.70;0.70;;;;;;;10.44;100.00;100705.38;7394575;19;20031;-81
2023/05/21 06:36:09;;;;;;;0.60;0.60;;;;;;;17.58;100.00;100707.38;7394172;19;20376;-81
2023/05/21 06:38:35;;;;;;;1.10;1.10;;;;;;;19.00;100.00;100694.22;7398410;19;20418;-81
2023/05/21 06:41:02;;;;;;;3.03;0.68;;;;;;;18.76;100.00;100699.59;7392650;19;20027;-81
2023/05/21 06:43:48;;;;;;;1.02;0.77;;;;;;;12.72;100.00;100718.63;7394434;19;20754;-81
2023/05/21 06:46:32;;;;;;;0.43;0.43;;;;;;;11.73;100.00;100706.28;7395650;19;20018;-81
2023/05/21 06:49:00;;;;;;;8.20;1.27;;;;;;;11.41;100.00;100712.38;7393389;19;20014;-81
2023/05/21 06:51:26;;;;;;;3.28;0.77;;;;;;;11.60;100.00;100713.97;7392062;19;20518;-81
2023/05/21 06:53:54;;;;;;;0.70;0.70;;;;;;;11.43;100.00;100723.84;7393632;19;20427;-81
2023/05/21 06:56:20;;;;;;;1.02;0.95;;;;;;;12.94;100.00;100717.19;7394919;19;20006;-81
2023/05/21 06:58:46;;;;;;;0.43;0.30;;;;;;;13.52;100.00;100711.22;7394169;19;20018;-82
2023/05/21 07:01:15;;;;;;;0.82;0.82;;;;;;;13.15;100.00;100709.84;7391257;19;20014;-82
2023/05/21 07:03:41;;;;;;;9.63;0.73;;;;;;;12.82;100.00;100717.41;7393662;19;20464;-82
2023/05/21 07:06:08;;;;;;;0.30;0.30;;;;;;;13.01;100.00;100713.28;7393070;19;20011;-82
2023/05/21 07:08:34;;;;;;;0.70;0.70;;;;;;;13.02;100.00;100714.03;7392983;19;20373;-82
2023/05/21 07:11:01;;;;;;;0.70;0.65;;;;;;;13.11;100.00;100712.03;7391365;19;20025;-83
2023/05/21 07:13:28;;;;;;;0.20;0.20;;;;;;;12.89;100.00;100717.03;7392397;19;20469;-82
2023/05/21 07:15:57;;;;;;;0.43;0.43;;;;;;;12.79;100.00;100707.16;7392197;19;20047;-83
2023/05/21 07:18:25;;;;;;;0.55;0.32;;;;;;;12.65;100.00;100718.97;7390951;19;20015;-82
2023/05/21 07:20:51;;;;;;;0.75;0.75;;;;;;;12.89;100.00;100712.22;7390694;19;20022;-82
2023/05/21 07:23:18;;;;;;;0.52;0.52;;;;;;;13.12;100.00;100708.00;7393054;19;20070;-82
2023/05/21 07:25:45;;;;;;;6.35;1.15;;;;;;;13.29;100.00;100709.16;7392617;19;20473;-82
2023/05/21 07:28:12;;;;;;;0.95;0.75;;;;;;;13.71;100.00;100708.31;7395769;19;20014;-82
2023/05/21 07:30:38;;;;;;;0.28;0.28;;;;;;;20.93;100.00;100689.88;7392103;19;20002;-82
2023/05/21 07:33:09;;;;;;;0.52;0.38;;;;;;;23.72;80.20;100694.84;7391179;19;20125;-82
2023/05/21 07:35:35;;;;;;;0.45;0.43;;;;;;;24.84;66.74;100688.28;7392153;19;20028;-82
2023/05/21 07:38:02;;;;;;;0.82;0.82;;;;;;;25.27;60.00;100697.06;7395212;19;20022;-82
2023/05/21 07:40:28;;;;;;;1.50;0.75;;;;;;;25.50;58.92;100695.19;7390842;19;20479;-82
2023/05/21 07:42:55;;;;;;;0.68;0.52;;;;;;;25.54;57.99;100703.38;7392215;19;20493;-81
2023/05/21 07:45:24;;;;;;;10.85;1.10;;;;;;;25.36;58.73;100699.41;7391879;19;20073;-81
2023/05/21 07:47:51;;;;;;;1.88;1.02;;;;;;;26.69;52.54;100700.50;7391588;19;20035;-81
2023/05/21 07:50:17;;;;;;;4.95;0.82;;;;;;;27.04;50.87;100694.69;7393257;19;20017;-81
2023/05/21 07:52:43;;;;;;;0.55;0.38;;;;;;;28.04;47.08;100702.66;7395400;19;20016;-81
2023/05/21 07:55:10;;;;;;;0.10;0.10;;;;;;;28.42;44.77;100694.66;7394765;19;20013;-81
2023/05/21 07:57:37;;;;;;;1.20;0.35;;;;;;;28.73;43.63;100697.38;7394428;19;20015;-81
2023/05/21 08:00:12;;;;;;;0.10;0.10;;;;;;;29.01;43.35;100694.88;7394439;19;20016;-81
2023/05/21 08:02:41;;;;;;;1.30;0.30;;;;;;;29.31;42.09;100691.03;7392568;19;20023;-82
2023/05/21 08:05:09;;;;;;;0.65;0.20;;;;;;;29.47;40.18;100698.16;7390748;19;20014;-82
2023/05/21 08:07:36;;;;;;;2.95;0.40;;;;;;;29.53;40.46;100695.03;7391473;19;20006;-81
2023/05/21 08:10:03;;;;;;;4.53;0.25;;;;;;;29.59;40.44;100695.53;7392229;19;20039;-83
2023/05/21 08:12:29;;;;;;;2.05;0.93;;;;;;;19.89;57.70;100705.38;7390493;19;20018;-83
2023/05/21 08:14:57;;;;;;;0.75;0.65;;;;;;;17.88;97.20;100711.38;7391620;19;20077;-83
2023/05/21 08:17:23;;;;;;;0.20;0.20;;;;;;;17.92;97.40;100707.03;7390484;19;20370;-83
2023/05/21 08:19:49;;;;;;;0.63;0.20;;;;;;;17.90;100.00;100703.19;7389606;19;20022;-83
2023/05/21 08:22:15;;;;;;;2.90;0.60;;;;;;;17.64;100.00;100711.00;7390577;19;20411;-83
2023/05/21 08:24:45;;;;;;;0.30;0.20;;;;;;;17.08;100.00;100709.81;7390689;19;20010;-83
2023/05/21 08:27:11;;;;;;;0.17;0.10;;;;;;;17.50;100.00;100707.06;7390473;19;20011;-83
2023/05/21 08:29:37;;;;;;;0.17;0.17;;;;;;;18.02;100.00;100697.09;7395514;19;20019;-83
2023/05/21 08:32:05;;;;;;;0.45;0.20;;;;;;;18.59;100.00;100707.28;7391140;19;20045;-83
2023/05/21 08:34:31;;;;;;;0.47;0.30;;;;;;;18.71;95.29;100700.38;7390853;19;20014;-83
2023/05/21 08:37:11;;;;;;;1.88;0.32;;;;;;;19.26;81.59;100694.72;7390685;19;20067;-82
2023/05/21 08:39:55;;;;;;;0.35;0.10;;;;;;;19.54;83.18;100683.38;7394731;19;20022;-82
2023/05/21 08:42:28;;;;;;;0.32;0.30;;;;;;;27.43;52.88;100687.66;7390007;19;20022;-82
2023/05/21 08:44:59;;;;;;;2.38;0.30;;;;;;;19.90;65.90;100698.44;7390732;19;20011;-82
2023/05/21 08:47:26;;;;;;;;;;;;;;;18.99;82.52;100698.34;7390841;19;20041;-82
2023/05/21 08:49:53;;;;;;;0.13;0.10;;;;;;;20.59;65.50;100693.47;7388387;19;19911;-82
2023/05/21 08:52:20;;;;;;;2.13;0.20;;;;;;;19.90;69.67;100690.75;7392658;19;20006;-82
2023/05/21 08:54:49;;;;;;;0.63;0.30;;;;;;;20.10;74.63;100681.13;7389607;19;20015;-82
2023/05/21 08:57:17;;;;;;;1.17;0.20;;;;;;;31.04;41.57;100670.91;7391248;19;20018;-82
2023/05/21 08:59:44;;;;;;;1.95;0.40;;;;;;;32.93;36.92;100667.16;7391162;19;20026;-82
2023/05/21 09:02:18;;;;;;;0.20;0.00;;;;;;;24.52;48.31;100679.19;7397769;19;20038;-82
2023/05/21 09:04:48;;;;;;;1.95;0.30;;;;;;;24.87;52.56;100675.78;7394267;19;20010;-81
2023/05/21 09:07:15;;;;;;;0.40;0.40;;;;;;;26.82;45.81;100672.56;7392989;19;20022;-81
2023/05/21 09:10:07;;;;;;;2.58;0.70;;;;;;;29.33;40.26;100665.38;7395352;19;20019;-82
2023/05/21 09:12:33;;;;;;;0.10;0.10;;;;;;;32.29;35.34;100660.34;7397283;19;20345;-82
2023/05/21 09:15:00;;;;;;;0.90;0.30;;;;;;;32.66;32.43;100661.63;7394429;19;20022;-82
2023/05/21 09:17:31;;;;;;;0.77;0.10;;;;;;;32.73;33.63;100660.69;7394520;19;20362;-82
2023/05/21 09:20:15;;;;;;;0.52;0.40;;;;;;;33.84;31.68;100656.16;7396420;19;20015;-83
2023/05/21 09:22:50;;;;;;;2.55;0.22;;;;;;;34.21;30.92;100652.19;7395145;19;20018;-83
2023/05/21 09:25:22;;;;;;;0.30;0.30;;;;;;;34.25;29.62;100652.44;7395235;19;20511;-82
2023/05/21 09:27:50;;;;;;;0.30;0.00;;;;;;;34.47;30.60;100656.03;7399040;19;20014;-83
2023/05/21 09:30:18;;;;;;;1.95;0.25;;;;;;;34.50;30.58;100649.00;7393338;19;20025;-83
2023/05/21 09:32:45;;;;;;;1.48;0.15;;;;;;;34.95;29.75;100647.56;7398728;19;20010;-82
2023/05/21 09:35:13;;;;;;;0.57;0.03;;;;;;;34.69;30.59;100637.22;7396508;19;20020;-82
2023/05/21 09:37:46;;;;;;;0.88;0.25;;;;;;;34.58;29.31;100640.84;7398192;19;20038;-82
2023/05/21 09:40:14;;;;;;;0.55;0.30;;;;;;;34.62;29.93;100643.25;7395294;19;20015;-82
2023/05/21 09:42:47;;;;;;;0.63;0.10;;;;;;;34.61;27.67;100647.53;7395411;19;20021;-83
2023/05/21 09:45:24;;;;;;;0.52;0.28;;;;;;;34.52;27.06;100633.94;7398981;19;20247;-81
2023/05/21 09:47:53;;;;;;;0.70;0.22;;;;;;;35.03;28.50;100633.59;7395711;19;20098;-81
2023/05/21 09:50:26;;;;;;;0.57;0.30;;;;;;;34.83;28.94;100635.22;7394582;19;20019;-80
2023/05/21 09:52:54;;;;;;;0.85;0.20;;;;;;;34.78;28.62;100630.53;7398984;19;20022;-81
2023/05/21 09:55:25;;;;;;;0.63;0.20;;;;;;;34.95;28.20;100635.22;7398643;19;20359;-80
2023/05/21 09:57:52;;;;;;;0.63;0.25;;;;;;;34.99;27.60;100630.47;7400647;19;20123;-81
2023/05/21 10:00:27;;;;;;;0.20;0.20;;;;;;;34.91;26.70;100627.00;7395872;19;20026;-81
2023/05/21 10:02:54;;;;;;;0.60;0.13;;;;;;;35.01;28.37;100633.47;7398989;19;20058;-81
2023/05/21 10:05:27;;;;;;;0.55;0.20;;;;;;;35.07;27.44;100624.41;7397738;19;20023;-80
2023/05/21 10:08:03;;;;;;;1.17;0.20;;;;;;;35.32;27.86;100627.41;7395989;19;20022;-81
2023/05/21 10:10:30;;;;;;;0.40;0.17;;;;;;;35.23;26.96;100619.59;7393110;19;20019;-80
2023/05/21 10:13:06;;;;;;;0.20;0.00;;;;;;;35.64;27.17;100611.97;7394755;19;20018;-81
2023/05/21 10:15:44;;;;;;;2.45;0.63;;;;;;;36.02;27.28;100612.72;7401856;19;20010;-81
2023/05/21 10:18:12;;;;;;;0.40;0.20;;;;;;;36.13;26.97;100618.44;7395108;19;20014;-80
2023/05/21 10:20:39;;;;;;;1.63;0.95;;;;;;;36.24;25.85;100605.25;7395323;19;20073;-81
2023/05/21 10:23:05;;;;;;;0.20;0.20;;;;;;;36.33;25.98;100601.44;7394461;19;20473;-81
2023/05/21 10:25:32;;;;;;;2.00;0.45;;;;;;;36.46;26.11;100603.63;7395090;19;20010;-80
2023/05/21 10:27:58;;;;;;;0.40;0.15;;;;;;;36.69;25.24;100603.47;7399956;19;20014;-81
2023/05/21 10:30:24;;;;;;;0.10;0.00;;;;;;;36.78;25.08;100602.50;7393270;19;20479;-81
2023/05/21 10:32:50;;;;;;;1.23;0.40;;;;;;;37.23;25.20;100594.78;7393630;19;20035;-81
2023/05/21 10:35:17;;;;;;;0.30;0.25;;;;;;;37.68;24.36;100591.28;7394208;19;20019;-81
2023/05/21 10:37:44;;;;;;;1.20;0.30;;;;;;;37.88;23.25;100595.22;7396056;19;20023;-81
2023/05/21 10:40:11;;;;;;;2.55;0.57;;;;;;;38.04;23.24;100593.09;7394960;19;20015;-81
2023/05/21 10:42:49;;;;;;;0.10;0.10;;;;;;;38.27;23.76;100586.97;7393332;19;20022;-82
2023/05/21 10:45:31;;;;;;;1.33;0.40;;;;;;;38.44;23.84;100595.03;7393188;19;20416;-81
2023/05/21 10:48:10;;;;;;;6.45;0.63;;;;;;;38.43;23.99;100584.81;7393836;19;20022;-81
2023/05/21 10:51:15;;;;;;;1.58;0.30;;;;;;;38.65;24.51;100591.69;7394260;19;20029;-82
2023/05/21 10:54:00;;;;;;;0.52;0.10;;;;;;;38.76;23.53;100577.59;7391585;19;20028;-82
2023/05/21 10:56:52;;;;;;;0.17;0.17;;;;;;;38.85;24.00;100585.31;7395059;19;20090;-81
2023/05/21 10:59:42;;;;;;;0.90;0.15;;;;;;;38.72;22.74;100577.44;7394334;19;20011;-81
2023/05/21 11:02:11;;;;;;;0.20;0.20;;;;;;;38.83;23.62;100582.31;7393270;19;20057;-82
2023/05/21 11:04:41;;;;;;;0.20;0.20;;;;;;;38.81;22.70;100585.88;7391940;19;20021;-82
2023/05/21 11:07:07;;;;;;;1.10;0.43;;;;;;;38.88;23.09;100573.06;7393730;19;20362;-80
2023/05/21 11:09:36;;;;;;;0.35;0.20;;;;;;;39.03;23.07;100578.13;7394095;19;20090;-82
2023/05/21 11:12:03;;;;;;;0.32;0.10;;;;;;;39.05;21.35;100568.75;7394243;19;20094;-83
2023/05/21 11:14:41;;;;;;;1.55;0.20;;;;;;;39.06;22.03;100570.97;7394123;19;20488;-82
2023/05/21 11:17:07;;;;;;;1.50;0.13;;;;;;;39.13;21.38;100574.94;7397514;19;20019;-82
2023/05/21 11:19:38;;;;;;;1.38;0.47;;;;;;;39.25;21.96;100570.38;7393419;19;20014;-82
2023/05/21 11:22:18;;;;;;;0.40;0.20;;;;;;;39.42;22.06;100563.06;7392921;19;20022;-82
2023/05/21 11:24:45;;;;;;;0.10;0.00;;;;;;;39.38;22.37;100566.56;7394612;19;20540;-83
2023/05/21 11:27:11;;;;;;;2.28;0.20;;;;;;;39.44;22.28;100566.06;7395483;19;20094;-82
2023/05/21 11:29:44;;;;;;;0.75;0.10;;;;;;;39.56;21.39;100563.72;7391858;19;20014;-82